sensor_id;sensor_type;location;lat;lon;timestamp;temperature;humidity
25482;DHT22;13395;50.752;4.268;2023-01-04T00:02:07;9.70;99.90
25482;DHT22;13395;50.752;4.268;2023-01-04T00:04:33;9.70;99.90
25482;DHT22;13395;50.752;4.268;2023-01-04T00:06:58;9.70;99.90
25482;DHT22;13395;50.752;4.268;2023-01-04T00:09:24;9.60;99.90
25482;DHT22;13395;50.752;4.268;2023-01-04T00:11:49;9.70;99.90
25482;DHT22;13395;50.752;4.268;2023-01-04T00:14:15;9.70;99.90
25482;DHT22;13395;50.752;4.268;2023-01-04T00:16:42;9.80;99.90
25482;DHT22;13395;50.752;4.268;2023-01-04T00:19:09;9.80;99.90
25482;DHT22;13395;50.752;4.268;2023-01-04T00:21:35;9.80;99.90
25482;DHT22;13395;50.752;4.268;2023-01-04T00:24:00;9.80;99.90
25482;DHT22;13395;50.752;4.268;2023-01-04T00:26:32;9.90;99.90
25482;DHT22;13395;50.752;4.268;2023-01-04T00:28:59;9.90;99.90
25482;DHT22;13395;50.752;4.268;2023-01-04T00:31:25;9.90;99.90
25482;DHT22;13395;50.752;4.268;2023-01-04T00:33:55;9.90;99.90
25482;DHT22;13395;50.752;4.268;2023-01-04T00:36:21;9.90;99.90
25482;DHT22;13395;50.752;4.268;2023-01-04T00:38:47;10.00;99.90
25482;DHT22;13395;50.752;4.268;2023-01-04T00:41:32;9.90;99.90
25482;DHT22;13395;50.752;4.268;2023-01-04T00:43:58;9.90;99.90
25482;DHT22;13395;50.752;4.268;2023-01-04T00:46:27;10.00;99.90
25482;DHT22;13395;50.752;4.268;2023-01-04T00:48:53;10.00;99.90
25482;DHT22;13395;50.752;4.268;2023-01-04T00:51:18;10.00;99.90
25482;DHT22;13395;50.752;4.268;2023-01-04T00:53:44;10.10;99.90
25482;DHT22;13395;50.752;4.268;2023-01-04T00:56:09;10.10;99.90
25482;DHT22;13395;50.752;4.268;2023-01-04T00:58:34;10.00;99.90
25482;DHT22;13395;50.752;4.268;2023-01-04T01:01:06;10.00;99.90
25482;DHT22;13395;50.752;4.268;2023-01-04T01:03:32;10.00;99.90
25482;DHT22;13395;50.752;4.268;2023-01-04T01:06:01;9.90;99.90
25482;DHT22;13395;50.752;4.268;2023-01-04T01:08:27;9.90;99.90
25482;DHT22;13395;50.752;4.268;2023-01-04T01:10:53;10.00;99.90
25482;DHT22;13395;50.752;4.268;2023-01-04T01:13:19;10.00;99.90
25482;DHT22;13395;50.752;4.268;2023-01-04T01:15:45;10.10;99.90
25482;DHT22;13395;50.752;4.268;2023-01-04T01:18:10;10.10;99.90
25482;DHT22;13395;50.752;4.268;2023-01-04T01:20:39;10.10;99.90
25482;DHT22;13395;50.752;4.268;2023-01-04T01:23:05;10.10;99.90
25482;DHT22;13395;50.752;4.268;2023-01-04T01:25:34;10.10;99.90
25482;DHT22;13395;50.752;4.268;2023-01-04T01:27:59;10.20;99.90
25482;DHT22;13395;50.752;4.268;2023-01-04T01:30:25;10.20;99.90
25482;DHT22;13395;50.752;4.268;2023-01-04T01:32:50;10.10;99.90
25482;DHT22;13395;50.752;4.268;2023-01-04T01:35:16;10.30;99.90
25482;DHT22;13395;50.752;4.268;2023-01-04T01:37:41;10.30;99.90
25482;DHT22;13395;50.752;4.268;2023-01-04T01:40:07;10.20;99.90
25482;DHT22;13395;50.752;4.268;2023-01-04T01:42:33;10.30;99.90
25482;DHT22;13395;50.752;4.268;2023-01-04T01:45:00;10.40;99.90
25482;DHT22;13395;50.752;4.268;2023-01-04T01:47:27;10.40;99.90
25482;DHT22;13395;50.752;4.268;2023-01-04T01:49:53;10.40;99.90
25482;DHT22;13395;50.752;4.268;2023-01-04T01:52:21;10.50;99.90
25482;DHT22;13395;50.752;4.268;2023-01-04T01:54:50;10.40;99.90
25482;DHT22;13395;50.752;4.268;2023-01-04T01:57:21;10.40;99.90
25482;DHT22;13395;50.752;4.268;2023-01-04T01:59:47;10.50;99.90
25482;DHT22;13395;50.752;4.268;2023-01-04T02:02:13;10.50;99.90
25482;DHT22;13395;50.752;4.268;2023-01-04T02:04:40;10.50;99.90
25482;DHT22;13395;50.752;4.268;2023-01-04T02:07:07;10.50;99.90
25482;DHT22;13395;50.752;4.268;2023-01-04T02:09:34;10.50;99.90
25482;DHT22;13395;50.752;4.268;2023-01-04T02:12:00;10.50;99.90
25482;DHT22;13395;50.752;4.268;2023-01-04T02:14:26;10.50;99.90
25482;DHT22;13395;50.752;4.268;2023-01-04T02:32:41;10.70;99.90
25482;DHT22;13395;50.752;4.268;2023-01-04T02:35:14;10.80;99.90
25482;DHT22;13395;50.752;4.268;2023-01-04T02:38:04;10.80;99.90
25482;DHT22;13395;50.752;4.268;2023-01-04T02:40:30;10.80;99.90
25482;DHT22;13395;50.752;4.268;2023-01-04T02:46:02;10.80;99.90
25482;DHT22;13395;50.752;4.268;2023-01-04T02:48:35;10.80;99.90
25482;DHT22;13395;50.752;4.268;2023-01-04T02:51:30;10.80;99.90
25482;DHT22;13395;50.752;4.268;2023-01-04T02:53:57;10.80;99.90
25482;DHT22;13395;50.752;4.268;2023-01-04T03:04:34;11.00;99.90
25482;DHT22;13395;50.752;4.268;2023-01-04T03:07:23;11.00;99.90
25482;DHT22;13395;50.752;4.268;2023-01-04T03:09:51;11.10;99.90
25482;DHT22;13395;50.752;4.268;2023-01-04T03:12:27;11.10;99.90
25482;DHT22;13395;50.752;4.268;2023-01-04T03:15:13;11.10;99.90
25482;DHT22;13395;50.752;4.268;2023-01-04T03:17:45;11.10;99.90
25482;DHT22;13395;50.752;4.268;2023-01-04T03:20:12;11.10;99.90
25482;DHT22;13395;50.752;4.268;2023-01-04T03:22:44;11.20;99.90
25482;DHT22;13395;50.752;4.268;2023-01-04T03:25:30;11.10;99.90
25482;DHT22;13395;50.752;4.268;2023-01-04T03:28:16;11.10;99.90
25482;DHT22;13395;50.752;4.268;2023-01-04T03:31:03;11.30;99.90
25482;DHT22;13395;50.752;4.268;2023-01-04T03:33:49;11.20;99.90
25482;DHT22;13395;50.752;4.268;2023-01-04T03:36:40;11.10;99.90
25482;DHT22;13395;50.752;4.268;2023-01-04T03:39:12;11.20;99.90
25482;DHT22;13395;50.752;4.268;2023-01-04T03:42:00;11.20;99.90
25482;DHT22;13395;50.752;4.268;2023-01-04T03:45:10;11.20;99.90
25482;DHT22;13395;50.752;4.268;2023-01-04T03:48:02;11.20;99.90
25482;DHT22;13395;50.752;4.268;2023-01-04T03:50:50;11.20;99.90
25482;DHT22;13395;50.752;4.268;2023-01-04T03:53:17;11.30;99.90
25482;DHT22;13395;50.752;4.268;2023-01-04T03:55:43;11.40;99.90
25482;DHT22;13395;50.752;4.268;2023-01-04T03:58:10;11.40;99.90
25482;DHT22;13395;50.752;4.268;2023-01-04T04:00:35;11.40;99.90
25482;DHT22;13395;50.752;4.268;2023-01-04T04:03:03;11.40;99.90
25482;DHT22;13395;50.752;4.268;2023-01-04T04:05:33;11.40;99.90
25482;DHT22;13395;50.752;4.268;2023-01-04T04:08:18;11.50;99.90
25482;DHT22;13395;50.752;4.268;2023-01-04T04:10:56;11.50;99.90
25482;DHT22;13395;50.752;4.268;2023-01-04T04:13:22;11.60;99.90
25482;DHT22;13395;50.752;4.268;2023-01-04T04:15:50;11.60;99.90
25482;DHT22;13395;50.752;4.268;2023-01-04T04:18:16;11.60;99.90
25482;DHT22;13395;50.752;4.268;2023-01-04T04:20:42;11.60;99.90
25482;DHT22;13395;50.752;4.268;2023-01-04T04:23:07;11.60;99.90
25482;DHT22;13395;50.752;4.268;2023-01-04T04:25:33;11.70;99.90
25482;DHT22;13395;50.752;4.268;2023-01-04T04:27:58;11.70;99.90
25482;DHT22;13395;50.752;4.268;2023-01-04T04:30:24;11.70;99.90
25482;DHT22;13395;50.752;4.268;2023-01-04T04:32:49;11.70;99.90
25482;DHT22;13395;50.752;4.268;2023-01-04T04:35:15;11.70;99.90
25482;DHT22;13395;50.752;4.268;2023-01-04T04:37:40;11.70;99.90
25482;DHT22;13395;50.752;4.268;2023-01-04T04:40:09;11.70;99.90
25482;DHT22;13395;50.752;4.268;2023-01-04T04:42:55;11.80;99.90
25482;DHT22;13395;50.752;4.268;2023-01-04T04:45:20;11.70;99.90
25482;DHT22;13395;50.752;4.268;2023-01-04T04:47:46;11.80;99.90
25482;DHT22;13395;50.752;4.268;2023-01-04T04:50:11;11.80;99.90
25482;DHT22;13395;50.752;4.268;2023-01-04T04:52:37;11.80;99.90
25482;DHT22;13395;50.752;4.268;2023-01-04T04:55:05;11.90;99.90
25482;DHT22;13395;50.752;4.268;2023-01-04T04:57:31;11.90;99.90
25482;DHT22;13395;50.752;4.268;2023-01-04T04:59:56;11.90;99.90
25482;DHT22;13395;50.752;4.268;2023-01-04T05:02:22;11.90;99.90
25482;DHT22;13395;50.752;4.268;2023-01-04T05:04:47;11.90;99.90
25482;DHT22;13395;50.752;4.268;2023-01-04T05:07:13;12.00;99.90
25482;DHT22;13395;50.752;4.268;2023-01-04T05:09:38;12.00;99.90
25482;DHT22;13395;50.752;4.268;2023-01-04T05:12:04;12.10;99.90
25482;DHT22;13395;50.752;4.268;2023-01-04T05:14:48;12.00;99.90
25482;DHT22;13395;50.752;4.268;2023-01-04T05:17:13;12.10;99.90
25482;DHT22;13395;50.752;4.268;2023-01-04T05:19:39;12.10;99.90
25482;DHT22;13395;50.752;4.268;2023-01-04T05:22:04;12.10;99.90
25482;DHT22;13395;50.752;4.268;2023-01-04T05:24:29;12.10;99.90
25482;DHT22;13395;50.752;4.268;2023-01-04T05:26:55;12.10;99.90
25482;DHT22;13395;50.752;4.268;2023-01-04T05:29:20;12.10;99.90
25482;DHT22;13395;50.752;4.268;2023-01-04T05:32:04;12.10;99.90
25482;DHT22;13395;50.752;4.268;2023-01-04T05:34:30;12.20;99.90
25482;DHT22;13395;50.752;4.268;2023-01-04T05:36:55;12.20;99.90
25482;DHT22;13395;50.752;4.268;2023-01-04T05:39:21;12.20;99.90
25482;DHT22;13395;50.752;4.268;2023-01-04T05:41:47;12.20;99.90
25482;DHT22;13395;50.752;4.268;2023-01-04T05:44:32;12.30;99.90
25482;DHT22;13395;50.752;4.268;2023-01-04T05:46:57;12.30;99.90
25482;DHT22;13395;50.752;4.268;2023-01-04T05:49:23;12.30;99.90
25482;DHT22;13395;50.752;4.268;2023-01-04T05:51:48;12.30;99.90
25482;DHT22;13395;50.752;4.268;2023-01-04T05:54:14;12.30;99.90
25482;DHT22;13395;50.752;4.268;2023-01-04T05:56:39;12.40;99.90
25482;DHT22;13395;50.752;4.268;2023-01-04T05:59:05;12.30;99.90
25482;DHT22;13395;50.752;4.268;2023-01-04T06:01:30;12.40;99.90
25482;DHT22;13395;50.752;4.268;2023-01-04T06:03:56;12.40;99.90
25482;DHT22;13395;50.752;4.268;2023-01-04T06:06:22;12.40;99.90
25482;DHT22;13395;50.752;4.268;2023-01-04T06:08:47;12.30;99.90
25482;DHT22;13395;50.752;4.268;2023-01-04T06:11:13;12.20;99.90
25482;DHT22;13395;50.752;4.268;2023-01-04T06:13:38;12.20;99.90
25482;DHT22;13395;50.752;4.268;2023-01-04T06:16:04;12.20;99.90
25482;DHT22;13395;50.752;4.268;2023-01-04T06:18:29;12.20;99.90
25482;DHT22;13395;50.752;4.268;2023-01-04T06:20:55;12.30;99.90
25482;DHT22;13395;50.752;4.268;2023-01-04T06:23:20;12.20;99.90
25482;DHT22;13395;50.752;4.268;2023-01-04T06:25:46;12.20;99.90
25482;DHT22;13395;50.752;4.268;2023-01-04T06:28:11;12.20;99.90
25482;DHT22;13395;50.752;4.268;2023-01-04T06:30:36;12.20;99.90
25482;DHT22;13395;50.752;4.268;2023-01-04T06:33:02;12.10;99.90
25482;DHT22;13395;50.752;4.268;2023-01-04T06:35:27;12.00;99.90
25482;DHT22;13395;50.752;4.268;2023-01-04T06:37:53;12.10;99.90
25482;DHT22;13395;50.752;4.268;2023-01-04T06:40:18;12.10;99.90
25482;DHT22;13395;50.752;4.268;2023-01-04T06:42:44;12.20;99.90
25482;DHT22;13395;50.752;4.268;2023-01-04T06:45:10;12.10;99.90
25482;DHT22;13395;50.752;4.268;2023-01-04T06:47:35;12.10;99.90
25482;DHT22;13395;50.752;4.268;2023-01-04T06:50:01;12.10;99.90
25482;DHT22;13395;50.752;4.268;2023-01-04T06:52:26;12.20;99.90
25482;DHT22;13395;50.752;4.268;2023-01-04T06:54:52;12.20;99.90
25482;DHT22;13395;50.752;4.268;2023-01-04T06:57:17;12.30;99.90
25482;DHT22;13395;50.752;4.268;2023-01-04T06:59:43;12.40;99.90
25482;DHT22;13395;50.752;4.268;2023-01-04T07:02:11;12.30;99.90
25482;DHT22;13395;50.752;4.268;2023-01-04T07:04:37;12.40;99.90
25482;DHT22;13395;50.752;4.268;2023-01-04T07:07:03;12.40;99.90
25482;DHT22;13395;50.752;4.268;2023-01-04T07:09:28;12.50;99.90
25482;DHT22;13395;50.752;4.268;2023-01-04T07:11:54;12.50;99.90
25482;DHT22;13395;50.752;4.268;2023-01-04T07:14:19;12.50;99.90
25482;DHT22;13395;50.752;4.268;2023-01-04T07:16:45;12.50;99.90
25482;DHT22;13395;50.752;4.268;2023-01-04T07:19:10;12.50;99.90
25482;DHT22;13395;50.752;4.268;2023-01-04T07:21:36;12.50;99.90
25482;DHT22;13395;50.752;4.268;2023-01-04T07:24:01;12.50;99.90
25482;DHT22;13395;50.752;4.268;2023-01-04T07:26:27;12.50;99.90
25482;DHT22;13395;50.752;4.268;2023-01-04T07:28:52;12.60;99.90
25482;DHT22;13395;50.752;4.268;2023-01-04T07:31:36;12.50;99.90
25482;DHT22;13395;50.752;4.268;2023-01-04T07:34:02;12.60;99.90
25482;DHT22;13395;50.752;4.268;2023-01-04T07:36:28;12.50;99.90
25482;DHT22;13395;50.752;4.268;2023-01-04T07:38:53;12.60;99.90
25482;DHT22;13395;50.752;4.268;2023-01-04T07:41:21;12.50;99.90
25482;DHT22;13395;50.752;4.268;2023-01-04T07:43:46;12.60;99.90
25482;DHT22;13395;50.752;4.268;2023-01-04T07:46:12;12.60;99.90
25482;DHT22;13395;50.752;4.268;2023-01-04T07:48:37;12.70;99.90
25482;DHT22;13395;50.752;4.268;2023-01-04T07:51:03;12.70;99.90
25482;DHT22;13395;50.752;4.268;2023-01-04T07:53:28;12.70;99.90
25482;DHT22;13395;50.752;4.268;2023-01-04T07:55:56;12.70;99.90
25482;DHT22;13395;50.752;4.268;2023-01-04T07:58:22;12.80;99.90
25482;DHT22;13395;50.752;4.268;2023-01-04T08:00:48;12.80;99.90
25482;DHT22;13395;50.752;4.268;2023-01-04T08:03:13;12.70;99.90
25482;DHT22;13395;50.752;4.268;2023-01-04T08:05:39;12.80;99.90
25482;DHT22;13395;50.752;4.268;2023-01-04T08:08:06;12.70;99.90
25482;DHT22;13395;50.752;4.268;2023-01-04T08:10:32;12.70;99.90
25482;DHT22;13395;50.752;4.268;2023-01-04T08:12:58;12.70;99.90
25482;DHT22;13395;50.752;4.268;2023-01-04T08:15:24;12.70;99.90
25482;DHT22;13395;50.752;4.268;2023-01-04T08:17:50;12.70;99.90
25482;DHT22;13395;50.752;4.268;2023-01-04T08:20:16;12.70;99.90
25482;DHT22;13395;50.752;4.268;2023-01-04T08:22:42;12.70;99.90
25482;DHT22;13395;50.752;4.268;2023-01-04T08:25:08;12.80;99.90
25482;DHT22;13395;50.752;4.268;2023-01-04T08:27:33;12.70;99.90
25482;DHT22;13395;50.752;4.268;2023-01-04T08:29:59;12.80;99.90
25482;DHT22;13395;50.752;4.268;2023-01-04T08:32:24;12.70;99.90
25482;DHT22;13395;50.752;4.268;2023-01-04T08:34:50;12.70;99.90
25482;DHT22;13395;50.752;4.268;2023-01-04T08:37:15;12.70;99.90
25482;DHT22;13395;50.752;4.268;2023-01-04T08:39:41;12.80;99.90
25482;DHT22;13395;50.752;4.268;2023-01-04T08:42:06;12.80;99.90
25482;DHT22;13395;50.752;4.268;2023-01-04T08:44:32;12.90;99.90
25482;DHT22;13395;50.752;4.268;2023-01-04T08:46:59;12.90;99.90
25482;DHT22;13395;50.752;4.268;2023-01-04T08:49:24;12.90;99.90
25482;DHT22;13395;50.752;4.268;2023-01-04T08:51:50;13.00;99.90
25482;DHT22;13395;50.752;4.268;2023-01-04T08:54:16;13.00;99.90
25482;DHT22;13395;50.752;4.268;2023-01-04T08:56:41;13.10;99.90
25482;DHT22;13395;50.752;4.268;2023-01-04T08:59:08;13.10;99.90
25482;DHT22;13395;50.752;4.268;2023-01-04T09:01:34;13.10;99.90
25482;DHT22;13395;50.752;4.268;2023-01-04T09:03:59;13.20;99.90
25482;DHT22;13395;50.752;4.268;2023-01-04T09:06:25;13.10;99.90
25482;DHT22;13395;50.752;4.268;2023-01-04T09:08:50;13.10;99.90
25482;DHT22;13395;50.752;4.268;2023-01-04T09:11:17;13.20;99.90
25482;DHT22;13395;50.752;4.268;2023-01-04T09:13:44;13.20;99.90
25482;DHT22;13395;50.752;4.268;2023-01-04T09:16:11;13.20;99.90
25482;DHT22;13395;50.752;4.268;2023-01-04T09:18:37;13.20;99.90
25482;DHT22;13395;50.752;4.268;2023-01-04T09:21:06;13.20;99.90
25482;DHT22;13395;50.752;4.268;2023-01-04T09:23:32;13.20;99.90
25482;DHT22;13395;50.752;4.268;2023-01-04T09:25:58;13.20;99.90
25482;DHT22;13395;50.752;4.268;2023-01-04T09:28:24;13.30;99.90
25482;DHT22;13395;50.752;4.268;2023-01-04T09:30:49;13.30;99.90
25482;DHT22;13395;50.752;4.268;2023-01-04T09:33:15;13.20;99.90
25482;DHT22;13395;50.752;4.268;2023-01-04T09:35:40;13.20;99.90
25482;DHT22;13395;50.752;4.268;2023-01-04T09:38:06;13.20;99.90
25482;DHT22;13395;50.752;4.268;2023-01-04T09:43:07;13.20;99.90
25482;DHT22;13395;50.752;4.268;2023-01-04T09:45:36;13.10;99.90
25482;DHT22;13395;50.752;4.268;2023-01-04T09:48:12;13.10;99.90
25482;DHT22;13395;50.752;4.268;2023-01-04T09:50:56;13.20;99.90
25482;DHT22;13395;50.752;4.268;2023-01-04T09:55:55;13.10;99.90
25482;DHT22;13395;50.752;4.268;2023-01-04T09:58:26;13.10;99.90
25482;DHT22;13395;50.752;4.268;2023-01-04T10:00:56;13.20;99.90
25482;DHT22;13395;50.752;4.268;2023-01-04T10:03:36;13.20;99.90
25482;DHT22;13395;50.752;4.268;2023-01-04T10:06:03;13.20;99.90
25482;DHT22;13395;50.752;4.268;2023-01-04T10:08:30;13.20;99.90
25482;DHT22;13395;50.752;4.268;2023-01-04T10:11:00;13.20;99.90
25482;DHT22;13395;50.752;4.268;2023-01-04T10:26:23;13.20;99.90
25482;DHT22;13395;50.752;4.268;2023-01-04T10:34:15;13.30;99.90
25482;DHT22;13395;50.752;4.268;2023-01-04T10:36:35;13.40;99.90
25482;DHT22;13395;50.752;4.268;2023-01-04T10:39:05;13.40;99.90
25482;DHT22;13395;50.752;4.268;2023-01-04T10:41:36;13.30;99.90
25482;DHT22;13395;50.752;4.268;2023-01-04T10:44:22;13.30;99.90
25482;DHT22;13395;50.752;4.268;2023-01-04T10:47:01;13.30;99.90
25482;DHT22;13395;50.752;4.268;2023-01-04T10:49:43;13.30;99.90
25482;DHT22;13395;50.752;4.268;2023-01-04T10:52:11;13.20;99.90
25482;DHT22;13395;50.752;4.268;2023-01-04T10:57:29;13.20;99.90
25482;DHT22;13395;50.752;4.268;2023-01-04T11:00:00;13.30;99.90
25482;DHT22;13395;50.752;4.268;2023-01-04T11:05:01;13.30;99.90
25482;DHT22;13395;50.752;4.268;2023-01-04T11:07:32;13.30;99.90
25482;DHT22;13395;50.752;4.268;2023-01-04T11:10:00;13.20;99.90
25482;DHT22;13395;50.752;4.268;2023-01-04T11:12:27;13.20;99.90
25482;DHT22;13395;50.752;4.268;2023-01-04T11:14:52;13.30;99.90
25482;DHT22;13395;50.752;4.268;2023-01-04T11:17:18;13.40;99.90
25482;DHT22;13395;50.752;4.268;2023-01-04T11:19:44;13.30;99.90
25482;DHT22;13395;50.752;4.268;2023-01-04T11:22:14;13.30;99.90
25482;DHT22;13395;50.752;4.268;2023-01-04T11:24:43;13.30;99.90
25482;DHT22;13395;50.752;4.268;2023-01-04T11:27:13;13.40;99.90
25482;DHT22;13395;50.752;4.268;2023-01-04T11:32:50;13.20;99.90
25482;DHT22;13395;50.752;4.268;2023-01-04T11:34:55;13.20;99.90
25482;DHT22;13395;50.752;4.268;2023-01-04T11:37:31;13.30;99.90
25482;DHT22;13395;50.752;4.268;2023-01-04T11:42:42;13.30;99.90
25482;DHT22;13395;50.752;4.268;2023-01-04T11:47:55;13.30;99.90
25482;DHT22;13395;50.752;4.268;2023-01-04T11:52:58;13.20;99.90
25482;DHT22;13395;50.752;4.268;2023-01-04T11:55:27;13.20;99.90
25482;DHT22;13395;50.752;4.268;2023-01-04T11:58:06;13.20;99.90
25482;DHT22;13395;50.752;4.268;2023-01-04T12:00:32;13.10;99.90
25482;DHT22;13395;50.752;4.268;2023-01-04T12:03:14;13.20;99.90
25482;DHT22;13395;50.752;4.268;2023-01-04T12:05:40;13.10;99.90
25482;DHT22;13395;50.752;4.268;2023-01-04T12:08:06;13.20;99.90
25482;DHT22;13395;50.752;4.268;2023-01-04T12:10:35;13.20;99.90
25482;DHT22;13395;50.752;4.268;2023-01-04T12:13:00;13.30;99.90
25482;DHT22;13395;50.752;4.268;2023-01-04T12:15:27;13.30;99.90
25482;DHT22;13395;50.752;4.268;2023-01-04T12:17:58;13.30;99.90
25482;DHT22;13395;50.752;4.268;2023-01-04T12:20:27;13.20;99.90
25482;DHT22;13395;50.752;4.268;2023-01-04T12:22:52;13.20;99.90
25482;DHT22;13395;50.752;4.268;2023-01-04T12:27:58;13.20;99.90
25482;DHT22;13395;50.752;4.268;2023-01-04T12:30:34;13.20;99.90
25482;DHT22;13395;50.752;4.268;2023-01-04T12:33:35;13.10;99.90
25482;DHT22;13395;50.752;4.268;2023-01-04T12:36:02;13.10;99.90
25482;DHT22;13395;50.752;4.268;2023-01-04T12:42:07;13.20;99.90
25482;DHT22;13395;50.752;4.268;2023-01-04T12:50:06;13.10;99.90
25482;DHT22;13395;50.752;4.268;2023-01-04T12:52:34;13.10;99.90
25482;DHT22;13395;50.752;4.268;2023-01-04T12:55:03;13.10;99.90
25482;DHT22;13395;50.752;4.268;2023-01-04T12:57:41;13.10;99.90
25482;DHT22;13395;50.752;4.268;2023-01-04T13:00:13;13.20;99.90
25482;DHT22;13395;50.752;4.268;2023-01-04T13:02:39;13.10;99.90
25482;DHT22;13395;50.752;4.268;2023-01-04T13:07:49;13.20;99.90
25482;DHT22;13395;50.752;4.268;2023-01-04T13:15:20;13.30;99.90
25482;DHT22;13395;50.752;4.268;2023-01-04T13:17:47;13.40;99.90
25482;DHT22;13395;50.752;4.268;2023-01-04T13:20:18;13.50;99.90
25482;DHT22;13395;50.752;4.268;2023-01-04T13:22:51;13.50;99.90
25482;DHT22;13395;50.752;4.268;2023-01-04T13:25:17;13.50;99.90
25482;DHT22;13395;50.752;4.268;2023-01-04T13:27:53;13.50;99.90
25482;DHT22;13395;50.752;4.268;2023-01-04T13:30:35;13.60;99.90
25482;DHT22;13395;50.752;4.268;2023-01-04T13:33:07;13.60;99.90
25482;DHT22;13395;50.752;4.268;2023-01-04T13:35:34;13.60;99.90
25482;DHT22;13395;50.752;4.268;2023-01-04T13:37:59;13.60;99.90
25482;DHT22;13395;50.752;4.268;2023-01-04T13:40:29;13.60;99.90
25482;DHT22;13395;50.752;4.268;2023-01-04T13:48:11;13.70;99.90
25482;DHT22;13395;50.752;4.268;2023-01-04T13:50:41;13.80;99.90
25482;DHT22;13395;50.752;4.268;2023-01-04T13:53:21;13.80;99.90
25482;DHT22;13395;50.752;4.268;2023-01-04T13:55:54;13.70;99.90
25482;DHT22;13395;50.752;4.268;2023-01-04T13:58:30;13.80;99.90
25482;DHT22;13395;50.752;4.268;2023-01-04T14:03:26;13.60;99.90
25482;DHT22;13395;50.752;4.268;2023-01-04T14:05:53;13.70;99.90
25482;DHT22;13395;50.752;4.268;2023-01-04T14:08:30;13.70;99.90
25482;DHT22;13395;50.752;4.268;2023-01-04T14:10:57;13.70;99.90
25482;DHT22;13395;50.752;4.268;2023-01-04T14:13:22;13.70;99.90
25482;DHT22;13395;50.752;4.268;2023-01-04T14:18:32;13.60;99.90
25482;DHT22;13395;50.752;4.268;2023-01-04T14:20:58;13.50;99.90
25482;DHT22;13395;50.752;4.268;2023-01-04T14:23:24;13.60;99.90
25482;DHT22;13395;50.752;4.268;2023-01-04T14:25:50;13.60;99.90
25482;DHT22;13395;50.752;4.268;2023-01-04T14:33:21;13.60;99.90
25482;DHT22;13395;50.752;4.268;2023-01-04T14:36:03;13.50;99.90
25482;DHT22;13395;50.752;4.268;2023-01-04T14:38:37;13.50;99.90
25482;DHT22;13395;50.752;4.268;2023-01-04T14:43:48;13.60;99.90
25482;DHT22;13395;50.752;4.268;2023-01-04T14:46:15;13.70;99.90
25482;DHT22;13395;50.752;4.268;2023-01-04T14:48:40;13.60;99.90
25482;DHT22;13395;50.752;4.268;2023-01-04T14:51:06;13.70;99.90
25482;DHT22;13395;50.752;4.268;2023-01-04T14:53:32;13.60;99.90
25482;DHT22;13395;50.752;4.268;2023-01-04T14:55:57;13.60;99.90
25482;DHT22;13395;50.752;4.268;2023-01-04T14:58:23;13.60;99.90
25482;DHT22;13395;50.752;4.268;2023-01-04T15:00:49;13.60;99.90
25482;DHT22;13395;50.752;4.268;2023-01-04T15:03:14;13.50;99.90
25482;DHT22;13395;50.752;4.268;2023-01-04T15:05:40;13.60;99.90
25482;DHT22;13395;50.752;4.268;2023-01-04T15:08:10;13.60;99.90
25482;DHT22;13395;50.752;4.268;2023-01-04T15:10:36;13.60;99.90
25482;DHT22;13395;50.752;4.268;2023-01-04T15:13:01;13.60;99.90
25482;DHT22;13395;50.752;4.268;2023-01-04T15:15:29;13.50;99.90
25482;DHT22;13395;50.752;4.268;2023-01-04T15:17:54;13.40;99.90
25482;DHT22;13395;50.752;4.268;2023-01-04T15:20:20;13.40;99.90
25482;DHT22;13395;50.752;4.268;2023-01-04T15:22:45;13.40;99.90
25482;DHT22;13395;50.752;4.268;2023-01-04T15:25:11;13.40;99.90
25482;DHT22;13395;50.752;4.268;2023-01-04T15:27:36;13.40;99.90
25482;DHT22;13395;50.752;4.268;2023-01-04T15:30:02;13.30;99.90
25482;DHT22;13395;50.752;4.268;2023-01-04T15:32:28;13.30;99.90
25482;DHT22;13395;50.752;4.268;2023-01-04T15:34:53;13.30;99.90
25482;DHT22;13395;50.752;4.268;2023-01-04T15:37:19;13.30;99.90
25482;DHT22;13395;50.752;4.268;2023-01-04T15:39:45;13.30;99.90
25482;DHT22;13395;50.752;4.268;2023-01-04T15:42:11;13.30;99.90
25482;DHT22;13395;50.752;4.268;2023-01-04T15:44:55;13.40;99.90
25482;DHT22;13395;50.752;4.268;2023-01-04T15:47:20;13.40;99.90
25482;DHT22;13395;50.752;4.268;2023-01-04T15:49:46;13.30;99.90
25482;DHT22;13395;50.752;4.268;2023-01-04T15:52:11;13.40;99.90
25482;DHT22;13395;50.752;4.268;2023-01-04T15:54:37;13.30;99.90
25482;DHT22;13395;50.752;4.268;2023-01-04T15:57:02;13.30;99.90
25482;DHT22;13395;50.752;4.268;2023-01-04T15:59:28;13.20;99.90
25482;DHT22;13395;50.752;4.268;2023-01-04T16:01:53;13.30;99.90
25482;DHT22;13395;50.752;4.268;2023-01-04T16:04:19;13.30;99.90
25482;DHT22;13395;50.752;4.268;2023-01-04T16:06:44;13.30;99.90
25482;DHT22;13395;50.752;4.268;2023-01-04T16:09:10;13.30;99.90
25482;DHT22;13395;50.752;4.268;2023-01-04T16:11:35;13.30;99.90
25482;DHT22;13395;50.752;4.268;2023-01-04T16:14:01;13.30;99.90
25482;DHT22;13395;50.752;4.268;2023-01-04T16:16:27;13.30;99.90
25482;DHT22;13395;50.752;4.268;2023-01-04T16:18:53;13.20;99.90
25482;DHT22;13395;50.752;4.268;2023-01-04T16:21:20;13.30;99.90
25482;DHT22;13395;50.752;4.268;2023-01-04T16:23:49;13.30;99.90
25482;DHT22;13395;50.752;4.268;2023-01-04T16:26:15;13.40;99.90
25482;DHT22;13395;50.752;4.268;2023-01-04T16:28:40;13.40;99.90
25482;DHT22;13395;50.752;4.268;2023-01-04T16:31:06;13.40;99.90
25482;DHT22;13395;50.752;4.268;2023-01-04T16:33:32;13.30;99.90
25482;DHT22;13395;50.752;4.268;2023-01-04T16:36:01;13.30;99.90
25482;DHT22;13395;50.752;4.268;2023-01-04T16:38:27;13.30;99.90
25482;DHT22;13395;50.752;4.268;2023-01-04T16:40:57;13.30;99.90
25482;DHT22;13395;50.752;4.268;2023-01-04T16:43:22;13.40;99.90
25482;DHT22;13395;50.752;4.268;2023-01-04T16:45:48;13.30;99.90
25482;DHT22;13395;50.752;4.268;2023-01-04T16:48:13;13.30;99.90
25482;DHT22;13395;50.752;4.268;2023-01-04T16:50:39;13.30;99.90
25482;DHT22;13395;50.752;4.268;2023-01-04T16:53:04;13.30;99.90
25482;DHT22;13395;50.752;4.268;2023-01-04T16:55:30;13.30;99.90
25482;DHT22;13395;50.752;4.268;2023-01-04T16:57:55;13.40;99.90
25482;DHT22;13395;50.752;4.268;2023-01-04T17:00:21;13.30;99.90
25482;DHT22;13395;50.752;4.268;2023-01-04T17:02:48;13.40;99.90
25482;DHT22;13395;50.752;4.268;2023-01-04T17:05:13;13.40;99.90
25482;DHT22;13395;50.752;4.268;2023-01-04T17:07:39;13.40;99.90
25482;DHT22;13395;50.752;4.268;2023-01-04T17:10:04;13.30;99.90
25482;DHT22;13395;50.752;4.268;2023-01-04T17:12:30;13.30;99.90
25482;DHT22;13395;50.752;4.268;2023-01-04T17:14:56;13.20;99.90
25482;DHT22;13395;50.752;4.268;2023-01-04T17:17:22;13.20;99.90
25482;DHT22;13395;50.752;4.268;2023-01-04T17:19:48;13.30;99.90
25482;DHT22;13395;50.752;4.268;2023-01-04T17:22:13;13.30;99.90
25482;DHT22;13395;50.752;4.268;2023-01-04T17:24:39;13.20;99.90